Time;durP1;ratioP1;P1;durP2;ratioP2;P2;SDS_P1;SDS_P2;PMS_P1;PMS_P2;Temp;Humidity;BMP_temperature;BMP_pressure;BME280_temperature;BME280_humidity;BME280_pressure;Samples;Min_cycle;Max_cycle;Signal;HPM_P1;HPM_P2
2023/02/21 02:16:49;;;;;;;51.13;24.70;;;;;;;4.93;100.00;101387.56;5057734;28;20391;-71
2023/02/21 02:19:21;;;;;;;39.78;22.50;;;;;;;4.92;100.00;101386.75;4968406;28;20458;-71
2023/02/21 02:22:26;;;;;;;46.30;25.17;;;;;;;4.90;100.00;101388.56;4966075;28;20379;-71
2023/02/21 02:25:21;;;;;;;38.55;23.23;;;;;;;4.88;100.00;101390.41;4964217;28;20084;-71
2023/02/21 02:28:15;;;;;;;46.40;25.15;;;;;;;4.89;100.00;101384.31;4967180;28;20019;-71
2023/02/21 02:31:19;;;;;;;48.42;27.77;;;;;;;4.90;100.00;101377.41;4963778;28;20054;-71
2023/02/21 02:34:29;;;;;;;46.53;25.85;;;;;;;4.93;100.00;101379.81;4965356;28;20042;-71
2023/02/21 02:37:22;;;;;;;48.42;24.90;;;;;;;4.95;100.00;101383.97;4955466;28;20199;-71
2023/02/21 02:40:30;;;;;;;47.63;25.98;;;;;;;4.98;100.00;101368.31;4956890;28;20046;-71
2023/02/21 02:43:19;;;;;;;48.60;26.92;;;;;;;5.00;100.00;101373.41;4966473;28;20061;-71
2023/02/21 02:45:47;;;;;;;46.40;26.08;;;;;;;5.00;100.00;101373.41;4964880;28;20109;-71
2023/02/21 02:48:40;;;;;;;43.67;26.98;;;;;;;5.04;100.00;101368.88;4966812;28;20042;-71
2023/02/21 02:51:14;;;;;;;50.78;27.60;;;;;;;5.10;100.00;101358.22;5046353;28;20161;-71
2023/02/21 02:53:40;;;;;;;47.38;27.05;;;;;;;5.11;100.00;101355.53;5039583;28;20037;-71
2023/02/21 02:56:16;;;;;;;52.40;27.58;;;;;;;5.10;100.00;101358.22;5043706;28;20123;-71
2023/02/21 02:58:48;;;;;;;50.53;27.88;;;;;;;5.10;100.00;101358.22;5041434;28;20543;-71
2023/02/21 03:01:45;;;;;;;44.83;27.17;;;;;;;5.11;100.00;101344.38;5041194;28;20094;-72
2023/02/21 03:04:30;;;;;;;48.65;28.08;;;;;;;5.14;100.00;101350.19;5039565;28;20044;-71
2023/02/21 03:07:33;;;;;;;48.17;27.08;;;;;;;5.15;100.00;101338.94;5042579;28;20040;-72
2023/02/21 03:10:35;;;;;;;47.33;26.30;;;;;;;5.18;100.00;101340.53;5043162;28;20214;-71
2023/02/21 03:13:16;;;;;;;48.70;27.20;;;;;;;5.19;100.00;101334.44;5038920;28;20041;-71
2023/02/21 03:16:23;;;;;;;48.30;28.20;;;;;;;5.22;100.00;101326.47;5040473;28;20377;-71
2023/02/21 03:19:12;;;;;;;45.83;27.33;;;;;;;5.21;100.00;101319.66;5040173;28;20033;-71
2023/02/21 03:21:43;;;;;;;46.38;26.67;;;;;;;5.19;100.00;101321.53;5038763;28;20075;-71
2023/02/21 03:24:12;;;;;;;42.58;26.20;;;;;;;5.20;100.00;101312.84;5039731;28;20048;-71
2023/02/21 03:26:41;;;;;;;46.22;25.65;;;;;;;5.23;100.00;101322.97;5040871;28;20044;-71
2023/02/21 03:29:07;;;;;;;40.88;24.95;;;;;;;5.25;100.00;101326.31;5039184;28;20106;-71
2023/02/21 03:31:40;;;;;;;45.92;27.30;;;;;;;5.25;100.00;101328.88;5045000;28;20028;-72
2023/02/21 03:34:06;;;;;;;46.92;26.55;;;;;;;5.25;100.00;101323.72;5039890;28;20039;-71
2023/02/21 03:36:32;;;;;;;44.47;26.75;;;;;;;5.25;100.00;101326.31;5038029;28;20040;-71
2023/02/21 03:38:58;;;;;;;51.63;26.85;;;;;;;5.26;100.00;101330.56;5044624;28;20033;-71
2023/02/21 03:41:24;;;;;;;49.30;28.10;;;;;;;5.22;100.00;101326.47;5041686;28;20041;-71
2023/02/21 03:43:50;;;;;;;45.53;26.38;;;;;;;5.21;100.00;101314.47;5039687;28;20119;-71
2023/02/21 03:46:16;;;;;;;47.03;26.58;;;;;;;5.17;100.00;101313.03;5039514;28;20087;-71
2023/02/21 03:48:41;;;;;;;46.22;25.95;;;;;;;5.16;100.00;101307.03;5043295;28;20042;-71
2023/02/21 03:51:07;;;;;;;50.20;25.73;;;;;;;5.14;100.00;101303.69;5040968;28;20506;-72
2023/02/21 03:53:33;;;;;;;41.67;24.85;;;;;;;5.16;100.00;101303.63;5040920;28;20489;-72
2023/02/21 03:55:59;;;;;;;49.65;27.98;;;;;;;5.13;100.00;101294.28;5041111;28;20055;-72
2023/02/21 03:58:24;;;;;;;46.58;26.83;;;;;;;5.17;100.00;101298.34;5038778;28;20451;-72
2023/02/21 04:00:50;;;;;;;46.63;27.92;;;;;;;5.25;100.00;101308.22;5041767;28;20029;-72
2023/02/21 04:03:16;;;;;;;48.92;26.60;;;;;;;5.32;100.00;101309.53;5039763;28;20048;-72
2023/02/21 04:05:42;;;;;;;49.03;26.90;;;;;;;5.36;100.00;101308.44;5042830;28;20056;-71
2023/02/21 04:08:08;;;;;;;50.45;27.15;;;;;;;5.38;100.00;101304.00;5045382;28;20055;-72
2023/02/21 04:10:34;;;;;;;45.50;25.52;;;;;;;5.40;100.00;101309.06;5038535;28;20041;-72
2023/02/21 04:13:00;;;;;;;52.17;28.73;;;;;;;5.40;100.00;101309.06;5041531;28;20079;-72
2023/02/21 04:15:26;;;;;;;46.97;27.73;;;;;;;5.43;100.00;101311.47;5044446;28;20029;-72
2023/02/21 04:17:52;;;;;;;50.40;28.33;;;;;;;5.44;100.00;101303.63;5051039;28;20513;-72
2023/02/21 04:20:17;;;;;;;52.67;29.58;;;;;;;5.45;100.00;101307.06;5063705;28;20029;-72
2023/02/21 04:22:43;;;;;;;55.15;30.67;;;;;;;5.46;100.00;101306.13;5066210;28;20068;-72
2023/02/21 04:25:09;;;;;;;54.95;31.50;;;;;;;5.48;100.00;101306.88;5063135;28;20119;-71
2023/02/21 04:27:35;;;;;;;56.58;31.58;;;;;;;5.51;100.00;101301.53;5067859;28;20463;-72
2023/02/21 04:30:01;;;;;;;52.22;30.55;;;;;;;5.53;100.00;101310.84;5061818;28;20036;-71
2023/02/21 04:32:26;;;;;;;51.85;31.17;;;;;;;5.51;100.00;101301.53;5065394;28;20040;-72
2023/02/21 04:34:52;;;;;;;56.25;34.05;;;;;;;5.48;100.00;101291.38;5063165;28;20028;-71
2023/02/21 04:37:18;;;;;;;54.42;33.10;;;;;;;5.49;100.00;101291.28;5068946;28;20124;-71
2023/02/21 04:39:43;;;;;;;53.53;32.47;;;;;;;5.49;100.00;101283.53;5060339;28;20397;-71
2023/02/21 04:42:09;;;;;;;55.17;32.78;;;;;;;5.54;100.00;101286.66;5065437;28;20028;-71
2023/02/21 04:44:35;;;;;;;55.47;33.20;;;;;;;5.57;100.00;101283.91;5059646;28;20045;-71
2023/02/21 04:47:01;;;;;;;54.35;32.53;;;;;;;5.63;100.00;101286.09;5052584;28;20444;-71
2023/02/21 04:49:26;;;;;;;55.67;33.03;;;;;;;5.64;100.00;101287.78;5062969;28;20116;-71
2023/02/21 04:51:53;;;;;;;53.88;32.67;;;;;;;5.63;100.00;101275.78;5064038;28;20017;-71
2023/02/21 04:54:19;;;;;;;56.67;32.63;;;;;;;5.61;100.00;101281.94;5057654;28;20040;-71
2023/02/21 04:56:44;;;;;;;45.45;30.33;;;;;;;5.63;100.00;101269.75;5065149;28;20062;-71
2023/02/21 04:59:10;;;;;;;51.90;32.35;;;;;;;5.68;100.00;101270.28;5063289;28;20033;-71
2023/02/21 05:01:36;;;;;;;52.92;31.25;;;;;;;5.75;100.00;101269.00;5061732;28;20025;-71
2023/02/21 05:04:02;;;;;;;48.53;29.58;;;;;;;5.76;100.00;101264.66;5058503;28;20032;-71
2023/02/21 05:06:29;;;;;;;51.97;31.30;;;;;;;5.71;100.00;101258.94;5064699;28;20036;-71
2023/02/21 05:08:55;;;;;;;55.25;32.65;;;;;;;5.72;100.00;101256.25;5057473;28;20020;-71
2023/02/21 05:11:22;;;;;;;59.08;32.70;;;;;;;5.77;100.00;101261.97;5066356;28;20025;-71
2023/02/21 05:13:48;;;;;;;49.13;29.95;;;;;;;5.86;100.00;101260.59;5061019;28;20025;-71
2023/02/21 05:16:14;;;;;;;51.58;30.23;;;;;;;5.88;100.00;101266.50;5063839;28;20072;-71
2023/02/21 05:18:41;;;;;;;53.05;29.10;;;;;;;5.85;100.00;101258.91;5059427;28;20126;-71
2023/02/21 05:21:07;;;;;;;54.42;31.45;;;;;;;5.78;100.00;101266.22;5062886;28;20055;-71
2023/02/21 05:23:34;;;;;;;51.05;29.48;;;;;;;5.75;100.00;101263.00;5062479;28;20488;-71
2023/02/21 05:26:04;;;;;;;51.47;28.55;;;;;;;5.77;100.00;101268.91;5066431;28;20169;-71
2023/02/21 05:28:30;;;;;;;44.25;24.65;;;;;;;5.79;100.00;101273.06;5064614;28;20029;-71
2023/02/21 05:30:56;;;;;;;45.47;26.85;;;;;;;5.80;100.00;101260.97;5063423;28;20036;-71
2023/02/21 05:33:23;;;;;;;52.60;28.67;;;;;;;5.80;100.00;101268.72;5064072;28;20041;-71
2023/02/21 05:35:49;;;;;;;48.17;29.02;;;;;;;5.76;100.00;101267.25;5062406;28;20498;-71
2023/02/21 05:38:17;;;;;;;48.95;28.13;;;;;;;5.73;100.00;101272.59;5066259;28;20040;-71
2023/02/21 05:40:43;;;;;;;49.38;28.25;;;;;;;5.71;100.00;101270.09;5060123;28;20522;-71
2023/02/21 05:43:09;;;;;;;55.05;29.23;;;;;;;5.74;100.00;101274.25;5067395;28;20032;-71
2023/02/21 05:45:35;;;;;;;52.85;29.63;;;;;;;5.79;100.00;101269.63;5064802;28;20118;-72
2023/02/21 05:48:01;;;;;;;54.35;28.83;;;;;;;5.85;100.00;101272.69;5059055;28;20460;-71
2023/02/21 05:50:28;;;;;;;51.33;28.27;;;;;;;5.89;100.00;101266.44;5060833;28;20158;-71
2023/02/21 05:52:55;;;;;;;52.63;29.98;;;;;;;5.94;100.00;101263.56;5057738;28;20033;-71
2023/02/21 05:55:21;;;;;;;50.75;27.48;;;;;;;5.95;100.00;101263.47;5055810;28;20034;-71
2023/02/21 05:57:47;;;;;;;49.60;28.15;;;;;;;5.98;100.00;101270.22;5064201;28;20032;-71
2023/02/21 06:00:22;;;;;;;51.28;27.77;;;;;;;5.99;100.00;101266.69;5062868;28;20123;-72
2023/02/21 06:02:49;;;;;;;51.58;27.45;;;;;;;5.98;100.00;101265.88;5046011;28;20356;-71
2023/02/21 06:05:16;;;;;;;48.47;28.92;;;;;;;5.98;100.00;101270.22;5065057;28;20067;-71
2023/02/21 06:07:42;;;;;;;47.58;26.48;;;;;;;6.00;100.00;101278.69;5061495;28;20031;-71
2023/02/21 06:10:09;;;;;;;59.65;30.65;;;;;;;6.01;100.00;101280.38;5065453;28;20046;-71
2023/02/21 06:12:35;;;;;;;59.80;31.23;;;;;;;6.03;100.00;101285.44;5042852;28;20035;-71
2023/02/21 06:15:01;;;;;;;53.83;29.83;;;;;;;6.03;100.00;101290.63;5060308;28;20156;-71
2023/02/21 06:17:27;;;;;;;53.33;30.20;;;;;;;6.01;100.00;101282.94;5063054;28;20044;-71
2023/02/21 06:19:55;;;;;;;52.78;30.52;;;;;;;6.01;100.00;101290.72;5062026;28;20090;-71
2023/02/21 06:22:21;;;;;;;59.78;31.52;;;;;;;6.03;100.00;101296.63;5064572;28;20090;-70
2023/02/21 06:24:47;;;;;;;52.70;30.17;;;;;;;6.07;100.00;101302.44;5058910;28;20028;-70
2023/02/21 06:27:14;;;;;;;54.60;32.15;;;;;;;6.06;100.00;101303.38;5057324;28;20063;-71
2023/02/21 06:29:39;;;;;;;56.13;32.80;;;;;;;6.11;100.00;101317.69;5065163;28;20028;-70
2023/02/21 06:32:05;;;;;;;61.67;33.88;;;;;;;6.13;100.00;101309.81;5064325;28;20037;-70
2023/02/21 06:34:30;;;;;;;61.03;33.35;;;;;;;6.17;100.00;101313.84;5064439;28;20467;-70
2023/02/21 06:36:56;;;;;;;56.20;31.80;;;;;;;6.21;100.00;101312.75;5060680;28;20056;-70
2023/02/21 06:39:22;;;;;;;61.05;33.38;;;;;;;6.23;100.00;101316.06;5062356;28;20047;-70
2023/02/21 06:41:52;;;;;;;60.20;34.67;;;;;;;6.26;100.00;101323.63;5064488;28;20310;-70
2023/02/21 06:44:17;;;;;;;59.38;30.20;;;;;;;6.25;100.00;101320.22;5060947;28;20104;-71
2023/02/21 06:46:43;;;;;;;53.38;32.53;;;;;;;6.25;100.00;101320.22;5063063;28;20562;-71
2023/02/21 06:49:09;;;;;;;51.80;30.40;;;;;;;6.28;100.00;101325.19;5061627;28;20089;-71
2023/02/21 06:51:39;;;;;;;56.67;31.30;;;;;;;6.31;100.00;101322.41;5064791;28;20051;-70
2023/02/21 06:54:09;;;;;;;47.90;28.35;;;;;;;6.33;100.00;101328.34;5060025;28;20047;-71
2023/02/21 06:56:35;;;;;;;59.75;30.73;;;;;;;6.36;100.00;101329.06;5066019;28;20032;-70
2023/02/21 06:59:01;;;;;;;59.92;31.05;;;;;;;6.39;100.00;101331.47;5065327;28;20118;-70
2023/02/21 07:01:28;;;;;;;55.17;32.33;;;;;;;6.40;100.00;101333.13;5060122;28;20047;-71
2023/02/21 07:03:54;;;;;;;54.63;30.55;;;;;;;6.41;100.00;101343.38;5061792;28;20388;-70
2023/02/21 07:06:20;;;;;;;46.28;28.05;;;;;;;6.44;100.00;101347.53;5058522;28;20058;-71
2023/02/21 07:08:45;;;;;;;54.08;31.15;;;;;;;6.41;100.00;101338.22;5063502;28;20365;-71
2023/02/21 07:11:11;;;;;;;60.55;31.58;;;;;;;6.37;100.00;101344.50;5061377;28;20041;-70
2023/02/21 07:13:36;;;;;;;55.08;30.02;;;;;;;6.37;100.00;101343.66;5063798;28;20608;-70
2023/02/21 07:16:03;;;;;;;52.20;30.83;;;;;;;6.43;100.00;101349.31;5063790;28;20070;-70
2023/02/21 07:18:28;;;;;;;51.78;28.50;;;;;;;6.46;100.00;101349.09;5061007;28;20040;-71
2023/02/21 07:20:54;;;;;;;60.38;30.17;;;;;;;6.45;100.00;101341.44;5062538;28;20453;-70
2023/02/21 07:23:19;;;;;;;56.80;32.78;;;;;;;6.46;100.00;101346.53;5063503;28;20090;-71
2023/02/21 07:25:45;;;;;;;56.53;31.73;;;;;;;6.50;100.00;101347.16;5063616;28;20083;-70
2023/02/21 07:28:10;;;;;;;51.72;30.80;;;;;;;6.53;100.00;101346.97;5063382;28;20036;-71
2023/02/21 07:30:36;;;;;;;53.22;30.95;;;;;;;6.56;100.00;101349.38;5064515;28;20429;-70
2023/02/21 07:33:01;;;;;;;56.55;31.30;;;;;;;6.56;100.00;101354.53;5064067;28;20074;-71
2023/02/21 07:35:27;;;;;;;48.13;27.67;;;;;;;6.57;100.00;101353.63;5066046;28;20032;-71
2023/02/21 07:37:52;;;;;;;55.08;30.40;;;;;;;6.57;100.00;101357.03;5061215;28;20055;-70
2023/02/21 07:40:18;;;;;;;51.78;29.17;;;;;;;6.59;100.00;101352.59;5061542;28;20479;-71
2023/02/21 07:42:46;;;;;;;57.20;29.52;;;;;;;6.62;100.00;101348.94;5061181;28;20036;-71
2023/02/21 07:45:15;;;;;;;52.45;30.13;;;;;;;6.61;100.00;101355.09;5064805;28;20388;-70
2023/02/21 07:47:42;;;;;;;50.90;29.02;;;;;;;6.62;100.00;101360.13;5057949;28;20028;-70
2023/02/21 07:50:08;;;;;;;53.35;29.38;;;;;;;6.64;100.00;101355.69;5061666;28;20108;-71
2023/02/21 07:52:34;;;;;;;52.90;29.33;;;;;;;6.67;100.00;101349.47;5060298;28;20044;-70
2023/02/21 07:54:59;;;;;;;59.88;33.45;;;;;;;6.66;100.00;101356.44;5061882;28;20080;-71
2023/02/21 07:57:25;;;;;;;58.60;33.45;;;;;;;6.68;100.00;101358.09;5063042;28;20032;-71
2023/02/21 07:59:50;;;;;;;57.75;33.72;;;;;;;6.71;100.00;101358.72;5063467;28;20031;-70
2023/02/21 08:02:16;;;;;;;54.30;32.38;;;;;;;6.73;100.00;101361.22;5064992;28;20041;-70
2023/02/21 08:04:41;;;;;;;56.10;32.33;;;;;;;6.74;100.00;101361.13;5060359;28;20164;-70
2023/02/21 08:07:07;;;;;;;51.05;30.50;;;;;;;6.79;100.00;101368.59;5059339;28;20028;-71
2023/02/21 08:09:34;;;;;;;53.20;30.40;;;;;;;6.82;100.00;101360.63;5055738;28;20119;-70
2023/02/21 08:11:59;;;;;;;54.15;30.80;;;;;;;6.84;100.00;101363.97;5062856;28;20380;-70
2023/02/21 08:14:25;;;;;;;62.60;31.70;;;;;;;6.86;100.00;101362.09;5063934;28;20044;-70
2023/02/21 08:16:51;;;;;;;54.38;30.58;;;;;;;6.85;100.00;101358.69;5062387;28;20115;-70
2023/02/21 08:19:17;;;;;;;54.05;31.80;;;;;;;6.84;100.00;101359.59;5044507;28;20106;-70
2023/02/21 08:21:49;;;;;;;65.32;34.55;;;;;;;6.84;100.00;101353.59;5042856;28;20044;-70
2023/02/21 08:24:15;;;;;;;63.30;34.53;;;;;;;6.88;100.00;101361.06;5040665;28;20070;-70
2023/02/21 08:26:44;;;;;;;61.75;33.55;;;;;;;6.90;100.00;101359.22;5040581;28;20049;-70
2023/02/21 08:29:10;;;;;;;60.58;33.40;;;;;;;6.94;100.00;101358.09;5036710;28;20045;-70
2023/02/21 08:31:37;;;;;;;57.15;34.10;;;;;;;6.97;100.00;101352.72;5041893;28;20048;-70
2023/02/21 08:34:04;;;;;;;55.30;33.63;;;;;;;7.02;100.00;101356.75;5031874;28;20478;-69
2023/02/21 08:36:31;;;;;;;54.33;30.95;;;;;;;7.08;100.00;101367.56;5040171;28;20040;-70
2023/02/21 08:38:57;;;;;;;53.70;32.03;;;;;;;7.16;100.00;101361.84;5037131;28;20021;-70
2023/02/21 08:41:24;;;;;;;62.15;33.75;;;;;;;7.23;100.00;101357.94;5038933;28;20037;-70
2023/02/21 08:43:50;;;;;;;64.00;32.35;;;;;;;7.28;100.00;101350.69;5040062;28;20064;-70
2023/02/21 08:46:15;;;;;;;59.30;31.95;;;;;;;7.30;100.00;101347.06;5038777;28;20065;-70
2023/02/21 08:48:41;;;;;;;62.67;32.72;;;;;;;7.36;100.00;101358.78;5035577;28;20115;-70
2023/02/21 08:51:06;;;;;;;60.88;32.97;;;;;;;7.40;100.00;101362.00;5032550;28;20068;-71
2023/02/21 08:53:31;;;;;;;59.25;33.58;;;;;;;7.47;100.00;101363.25;5038145;28;20058;-71
2023/02/21 08:55:57;;;;;;;64.85;35.03;;;;;;;7.52;100.00;101356.00;5032066;28;20029;-71
2023/02/21 08:58:23;;;;;;;60.80;34.58;;;;;;;7.56;100.00;101363.44;5038323;28;20036;-72
2023/02/21 09:00:48;;;;;;;66.32;36.75;;;;;;;7.60;100.00;101367.50;5032741;28;20040;-71
2023/02/21 09:03:14;;;;;;;62.63;36.20;;;;;;;7.62;100.00;101363.03;5039117;28;20543;-71
2023/02/21 09:05:39;;;;;;;58.83;34.90;;;;;;;7.69;100.00;101365.22;5040242;28;20041;-71
2023/02/21 09:08:08;;;;;;;57.45;33.58;;;;;;;7.70;100.00;101366.88;5044916;28;20094;-71
2023/02/21 09:10:34;;;;;;;69.97;35.83;;;;;;;7.61;100.00;101361.38;5040346;28;20090;-70
2023/02/21 09:13:00;;;;;;;68.38;36.78;;;;;;;7.59;100.00;101358.06;5037101;28;20041;-70
2023/02/21 09:15:25;;;;;;;63.10;36.33;;;;;;;7.62;100.00;101355.25;5042616;28;20041;-71
2023/02/21 09:17:53;;;;;;;71.53;37.58;;;;;;;7.65;100.00;101362.00;5036825;28;20040;-70
2023/02/21 09:20:22;;;;;;;66.57;34.63;;;;;;;7.70;100.00;101361.69;5020171;28;20123;-70
2023/02/21 09:22:48;;;;;;;63.85;36.25;;;;;;;7.77;100.00;101360.34;5009305;28;20104;-73
2023/02/21 09:25:17;;;;;;;71.18;36.70;;;;;;;7.85;100.00;101374.47;5057892;28;20039;-71
2023/02/21 09:27:42;;;;;;;70.82;38.22;;;;;;;7.87;100.00;101364.81;5039189;28;20365;-69
2023/02/21 09:30:10;;;;;;;66.38;38.53;;;;;;;7.90;100.00;101366.34;5059970;28;20038;-69
2023/02/21 09:32:38;;;;;;;67.60;37.75;;;;;;;7.94;100.00;101347.88;5059499;28;20033;-69
2023/02/21 09:35:05;;;;;;;66.70;36.10;;;;;;;8.01;100.00;101352.66;5055386;28;20391;-71
2023/02/21 09:37:31;;;;;;;64.88;36.08;;;;;;;8.04;100.00;101353.25;5056056;28;20056;-70
2023/02/21 09:39:57;;;;;;;65.38;36.30;;;;;;;8.09;100.00;101342.53;5054270;28;21153;-71
2023/02/21 09:42:30;;;;;;;63.95;35.85;;;;;;;8.11;100.00;101351.88;5042315;28;20052;-71
2023/02/21 09:44:57;;;;;;;66.13;36.65;;;;;;;8.14;100.00;101348.25;5033300;28;20032;-70
2023/02/21 09:47:43;;;;;;;54.13;34.90;;;;;;;8.19;100.00;101349.56;5054102;28;20506;-71
2023/02/21 09:50:17;;;;;;;58.22;34.05;;;;;;;8.25;100.00;101345.72;5050939;28;20029;-71
2023/02/21 09:52:43;;;;;;;61.63;35.80;;;;;;;8.33;100.00;101348.66;5037167;28;20040;-70
2023/02/21 09:55:39;;;;;;;63.58;36.70;;;;;;;8.32;100.00;101342.63;5054502;28;20043;-69
2023/02/21 09:58:12;;;;;;;72.80;36.92;;;;;;;8.39;100.00;101348.22;5030911;28;20063;-69
2023/02/21 10:00:38;;;;;;;58.30;35.20;;;;;;;8.45;100.00;101349.56;5038031;28;20048;-70
2023/02/21 10:03:33;;;;;;;69.03;36.35;;;;;;;8.45;100.00;101345.19;5054761;28;20449;-70
2023/02/21 10:05:59;;;;;;;69.93;37.20;;;;;;;8.47;100.00;101347.69;5057397;28;20786;-70
2023/02/21 10:09:03;;;;;;;58.47;35.28;;;;;;;8.50;100.00;101343.09;5059071;28;20054;-70
2023/02/21 10:12:19;;;;;;;60.15;35.80;;;;;;;8.51;100.00;101343.88;5043555;28;20502;-69
2023/02/21 10:15:20;;;;;;;58.65;32.50;;;;;;;8.51;100.00;101342.13;5014766;28;20120;-68
2023/02/21 10:17:54;;;;;;;56.80;35.13;;;;;;;8.60;100.00;101335.44;5010373;28;21492;-69
2023/02/21 10:20:46;;;;;;;66.70;35.30;;;;;;;8.71;100.00;101338.09;5020676;28;20037;-69
2023/02/21 10:23:31;;;;;;;64.20;36.40;;;;;;;8.79;100.00;101343.56;5012153;28;20050;-69
2023/02/21 10:26:06;;;;;;;63.65;36.55;;;;;;;8.87;100.00;101341.25;5001888;28;20449;-70
2023/02/21 10:28:32;;;;;;;63.38;36.42;;;;;;;8.90;100.00;101338.44;5002495;28;20033;-69
2023/02/21 10:31:02;;;;;;;63.45;34.88;;;;;;;8.97;100.00;101341.41;5012385;28;20061;-69
2023/02/21 10:33:31;;;;;;;62.63;35.53;;;;;;;9.02;100.00;101330.66;5003882;28;20454;-69
2023/02/21 10:35:57;;;;;;;61.45;34.80;;;;;;;9.05;100.00;101333.84;5014868;28;20402;-69
2023/02/21 10:38:25;;;;;;;65.25;36.78;;;;;;;9.10;100.00;101330.91;5014328;28;20050;-69
2023/02/21 10:41:01;;;;;;;62.30;35.65;;;;;;;9.18;100.00;101332.00;5012811;28;20077;-71
2023/02/21 10:44:01;;;;;;;62.42;35.28;;;;;;;9.25;100.00;101321.97;5003257;28;20122;-71
2023/02/21 10:46:39;;;;;;;67.97;36.20;;;;;;;9.32;100.00;101323.16;5017702;28;20045;-70
2023/02/21 10:49:27;;;;;;;62.55;32.85;;;;;;;9.37;100.00;101325.44;5003435;28;20481;-70
2023/02/21 10:52:16;;;;;;;51.40;32.60;;;;;;;9.39;100.00;101321.78;5037856;28;20122;-70
2023/02/21 10:55:00;;;;;;;57.13;34.97;;;;;;;9.39;100.00;101321.78;5036724;28;20469;-70
2023/02/21 10:57:28;;;;;;;65.53;35.65;;;;;;;9.48;100.00;101305.44;5039083;28;20486;-69
2023/02/21 10:59:54;;;;;;;62.25;36.85;;;;;;;9.49;100.00;101312.31;5035756;28;20033;-70
2023/02/21 11:02:38;;;;;;;69.90;38.65;;;;;;;9.55;100.00;101309.22;5036427;28;20037;-70
2023/02/21 11:05:19;;;;;;;70.25;38.53;;;;;;;9.61;100.00;101306.16;5035118;28;20037;-70
2023/02/21 11:08:07;;;;;;;67.70;40.63;;;;;;;9.64;100.00;101305.09;5037781;28;20488;-70
2023/02/21 11:10:33;;;;;;;68.10;41.38;;;;;;;9.67;100.00;101304.03;5037802;28;20075;-70
2023/02/21 11:13:06;;;;;;;62.85;40.80;;;;;;;9.76;100.00;101304.16;5034232;28;20098;-69
2023/02/21 11:15:33;;;;;;;68.30;41.88;;;;;;;9.83;100.00;101288.91;5032071;28;20457;-69
2023/02/21 11:18:06;;;;;;;67.72;41.83;;;;;;;9.86;100.00;101286.88;5044380;28;20049;-69
2023/02/21 11:20:32;;;;;;;70.05;40.72;;;;;;;9.98;100.00;101296.31;5028738;28;20075;-69
2023/02/21 11:22:58;;;;;;;70.65;42.67;;;;;;;10.04;100.00;101294.19;5056065;28;20079;-69
2023/02/21 11:25:38;;;;;;;65.40;40.63;;;;;;;10.10;100.00;101280.69;5056982;28;20040;-69
2023/02/21 11:28:24;;;;;;;74.68;41.72;;;;;;;10.17;100.00;101281.84;5055805;28;20093;-69
2023/02/21 11:31:07;;;;;;;71.13;41.67;;;;;;;10.20;100.00;101279.88;5033975;28;20036;-68
2023/02/21 11:33:40;;;;;;;71.05;39.65;;;;;;;10.24;100.00;101277.84;5040730;28;20115;-69
2023/02/21 11:36:14;;;;;;;70.03;39.72;;;;;;;10.26;100.00;101271.56;5053965;28;20029;-69
2023/02/21 11:38:44;;;;;;;64.22;38.47;;;;;;;10.34;100.00;101272.72;5035852;28;20040;-69
2023/02/21 11:41:29;;;;;;;62.00;38.65;;;;;;;10.32;100.00;101267.66;5017546;28;20068;-69
2023/02/21 11:43:56;;;;;;;63.53;39.10;;;;;;;10.28;100.00;101263.63;5020103;28;20547;-69
2023/02/21 11:46:49;;;;;;;61.85;39.90;;;;;;;10.22;100.00;101259.75;5024250;28;20028;-70
2023/02/21 11:49:33;;;;;;;61.05;38.05;;;;;;;10.22;100.00;101261.50;5050627;28;20039;-70
2023/02/21 11:52:13;;;;;;;67.70;39.60;;;;;;;10.20;100.00;101260.81;5033544;28;20028;-69
2023/02/21 11:54:39;;;;;;;61.75;39.38;;;;;;;10.18;100.00;101255.69;5037203;28;20042;-69
2023/02/21 11:57:15;;;;;;;66.35;40.25;;;;;;;10.15;100.00;101255.09;5055790;28;20042;-69
2023/02/21 12:00:06;;;;;;;64.65;37.65;;;;;;;10.11;100.00;101249.31;5051849;28;20029;-69
2023/02/21 12:02:54;;;;;;;68.57;40.25;;;;;;;10.06;100.00;101246.25;5050547;28;20479;-69
2023/02/21 12:05:57;;;;;;;70.70;41.28;;;;;;;9.94;100.00;101247.22;5055667;28;20025;-69
2023/02/21 12:08:41;;;;;;;73.32;40.72;;;;;;;9.84;100.00;101241.94;5052457;28;20107;-69
2023/02/21 12:11:44;;;;;;;68.50;38.97;;;;;;;9.86;100.00;101241.81;5049315;28;20036;-69
2023/02/21 12:14:38;;;;;;;61.45;37.85;;;;;;;9.95;100.00;101222.84;5051821;28;20055;-69
2023/02/21 12:17:41;;;;;;;65.72;39.25;;;;;;;10.03;100.00;101220.44;5051488;28;20396;-70
2023/02/21 12:20:23;;;;;;;67.32;41.35;;;;;;;10.07;100.00;101216.66;5054087;28;20036;-70
2023/02/21 12:23:26;;;;;;;68.03;40.20;;;;;;;10.11;100.00;101217.25;5041503;28;20040;-70
2023/02/21 12:26:34;;;;;;;75.78;41.08;;;;;;;10.17;99.96;101212.38;4977016;28;20092;-70
2023/02/21 12:29:51;;;;;;;72.07;41.28;;;;;;;10.28;98.15;101208.94;4960503;28;20043;-71
2023/02/21 12:32:35;;;;;;;;;;;;;;;10.25;96.73;101210.00;5058244;28;20060;-70
2023/02/21 12:35:38;;;;;;;71.05;39.00;;;;;;;10.26;98.84;101203.03;5054742;28;19916;-70
2023/02/21 12:38:18;;;;;;;75.72;43.00;;;;;;;10.30;99.71;101201.81;5056238;28;20031;-70
2023/02/21 12:41:06;;;;;;;70.57;41.78;;;;;;;10.38;99.09;101193.38;5058954;28;20039;-70
2023/02/21 12:43:56;;;;;;;73.03;41.85;;;;;;;10.45;98.63;101191.91;5059476;28;20033;-70
2023/02/21 12:46:53;;;;;;;71.57;41.08;;;;;;;10.48;98.24;101189.88;5062173;28;20021;-70
2023/02/21 12:49:58;;;;;;;70.07;41.05;;;;;;;10.45;98.54;101176.28;5058144;28;20135;-70
2023/02/21 12:53:06;;;;;;;74.57;40.88;;;;;;;10.47;98.75;101182.19;5060488;28;20071;-70
2023/02/21 12:55:37;;;;;;;73.30;42.45;;;;;;;10.47;99.99;101180.41;4967207;28;20050;-70
2023/02/21 12:58:10;;;;;;;72.25;41.78;;;;;;;10.39;98.99;101169.81;4960693;28;20132;-70
2023/02/21 13:00:57;;;;;;;71.82;42.30;;;;;;;10.38;98.59;101172.56;4964275;28;20066;-70
2023/02/21 13:04:01;;;;;;;72.82;41.88;;;;;;;10.43;98.42;101165.16;4965969;28;20039;-70
2023/02/21 13:06:30;;;;;;;69.68;42.08;;;;;;;10.40;98.91;101160.22;4966886;28;20093;-70
2023/02/21 13:09:19;;;;;;;74.57;41.53;;;;;;;10.36;98.91;101159.66;4964474;28;20047;-70
2023/02/21 13:12:04;;;;;;;78.30;44.28;;;;;;;10.34;98.70;101160.72;4966312;28;20030;-70
2023/02/21 13:14:35;;;;;;;75.72;44.00;;;;;;;10.30;98.92;101155.78;4964478;28;20034;-70
2023/02/21 13:17:01;;;;;;;75.63;42.63;;;;;;;10.25;98.57;101155.31;4965570;28;20622;-70
2023/02/21 13:19:41;;;;;;;78.57;44.88;;;;;;;10.31;98.71;101154.00;4965710;28;20080;-70
2023/02/21 13:25:43;;;;;;;78.72;44.03;;;;;;;10.55;97.95;101149.34;4962808;28;20077;-70
2023/02/21 13:28:37;;;;;;;70.15;41.95;;;;;;;10.61;98.23;101137.59;4965834;28;20046;-69
2023/02/21 13:31:05;;;;;;;77.05;42.15;;;;;;;10.56;98.40;101135.34;5054841;28;20067;-70
2023/02/21 13:33:44;;;;;;;79.95;44.13;;;;;;;10.51;97.92;101140.13;5041005;28;20079;-71
2023/02/21 13:36:31;;;;;;;78.25;43.30;;;;;;;10.43;97.20;101129.50;5059325;28;20032;-70
2023/02/21 13:39:08;;;;;;;76.63;44.40;;;;;;;10.36;98.27;101122.34;5057679;28;20098;-70
2023/02/21 13:41:38;;;;;;;75.32;42.08;;;;;;;10.34;98.86;101129.47;5059254;28;20082;-70
2023/02/21 13:44:09;;;;;;;81.28;45.05;;;;;;;10.37;98.28;101119.63;5027232;28;20058;-70
2023/02/21 13:46:38;;;;;;;77.05;44.90;;;;;;;10.50;97.70;101124.63;5061010;28;20036;-70
2023/02/21 13:49:36;;;;;;;76.43;43.47;;;;;;;10.57;97.24;101120.56;5035926;28;20041;-70
2023/02/21 13:52:31;;;;;;;71.97;43.03;;;;;;;10.57;97.18;101116.16;5058303;28;20123;-70
2023/02/21 13:55:18;;;;;;;76.68;43.97;;;;;;;10.63;97.61;101120.88;5057204;28;20041;-70
2023/02/21 13:57:53;;;;;;;72.30;43.92;;;;;;;10.69;97.95;101121.31;5059647;28;20036;-70